createdAt,value
2019-01-15T00:01:47.950Z,99361.92
2019-01-15T00:04:19.131Z,99367.11
2019-01-15T00:06:48.731Z,99363.98
2019-01-15T00:09:19.159Z,99364.04
2019-01-15T00:11:50.769Z,99362.78
2019-01-15T00:14:20.299Z,99367.65
2019-01-15T00:16:50.315Z,99369.27
2019-01-15T00:19:23.553Z,99367.91
2019-01-15T00:21:53.132Z,99366.86
2019-01-15T00:24:23.684Z,99381.23
2019-01-15T00:26:52.940Z,99376.50
2019-01-15T00:29:22.542Z,99388.20
2019-01-15T00:31:51.805Z,99391.41
2019-01-15T00:34:21.081Z,99383.37
2019-01-15T00:36:50.364Z,99387.59
2019-01-15T00:39:19.894Z,99395.08
2019-01-15T00:41:50.781Z,99395.44
2019-01-15T00:44:20.343Z,99397.83
2019-01-15T00:46:52.229Z,99407.37
2019-01-15T00:49:22.269Z,99405.72
2019-01-15T00:51:53.522Z,99411.70
2019-01-15T00:54:24.635Z,99412.21
2019-01-15T00:56:54.762Z,99412.25
2019-01-15T00:59:24.010Z,99409.73
2019-01-15T01:01:54.337Z,99408.12
2019-01-15T01:04:25.930Z,99421.18
2019-01-15T01:06:55.439Z,99413.92
2019-01-15T01:09:24.978Z,99424.52
2019-01-15T01:11:55.720Z,99424.41
2019-01-15T01:14:27.243Z,99433.52
2019-01-15T01:16:57.997Z,99435.31
2019-01-15T01:19:27.471Z,99435.81
2019-01-15T01:21:59.120Z,99432.52
2019-01-15T01:24:28.611Z,99435.49
2019-01-15T01:26:58.536Z,99438.78
2019-01-15T01:29:28.201Z,99443.96
2019-01-15T01:31:57.734Z,99444.33
2019-01-15T01:34:27.015Z,99445.99
2019-01-15T01:36:57.815Z,99442.97
2019-01-15T01:39:28.630Z,99440.94
2019-01-15T01:42:18.151Z,99444.09
2019-01-15T01:44:47.454Z,99445.35
2019-01-15T01:47:16.984Z,99439.59
2019-01-15T01:49:47.622Z,99437.39
2019-01-15T01:52:18.705Z,99441.62
2019-01-15T01:54:49.352Z,99446.34
2019-01-15T01:57:23.543Z,99445.00
2019-01-15T01:59:53.619Z,99450.58
2019-01-15T02:02:23.169Z,99446.34
2019-01-15T02:04:52.412Z,99454.05
2019-01-15T02:07:25.317Z,99457.92
2019-01-15T02:09:54.817Z,99457.88
2019-01-15T02:12:24.880Z,99457.42
2019-01-15T02:14:56.222Z,99452.08
2019-01-15T02:17:26.291Z,99449.45
2019-01-15T02:19:55.985Z,99444.23
2019-01-15T02:22:26.105Z,99451.67
2019-01-15T02:24:56.223Z,99440.81
2019-01-15T02:27:26.868Z,99442.57
2019-01-15T02:29:56.105Z,99451.66
2019-01-15T02:32:25.625Z,99452.34
2019-01-15T02:34:56.070Z,99457.52
2019-01-15T02:37:28.260Z,99467.97
2019-01-15T02:39:57.526Z,99477.06
2019-01-15T02:42:27.908Z,99474.06
2019-01-15T02:45:03.209Z,99475.09
2019-01-15T02:47:32.730Z,99474.72
2019-01-15T02:50:05.315Z,99487.20
2019-01-15T02:52:36.093Z,99485.67
2019-01-15T02:55:07.668Z,99473.28
2019-01-15T02:57:37.286Z,99475.27
2019-01-15T03:00:29.799Z,99470.08
2019-01-15T03:03:01.908Z,99468.73
2019-01-15T03:05:31.443Z,99476.50
2019-01-15T03:08:01.732Z,99470.89
2019-01-15T03:10:38.254Z,99468.09
2019-01-15T03:13:08.009Z,99473.98
2019-01-15T03:15:40.684Z,99463.67
2019-01-15T03:18:10.299Z,99463.45
2019-01-15T03:20:39.581Z,99453.99
2019-01-15T03:23:09.432Z,99457.30
2019-01-15T03:25:39.833Z,99462.55
2019-01-15T03:28:10.217Z,99457.14
2019-01-15T03:30:41.471Z,99451.87
2019-01-15T03:33:13.011Z,99454.97
2019-01-15T03:35:42.857Z,99449.05
2019-01-15T03:38:15.176Z,99451.20
2019-01-15T03:40:45.519Z,99456.03
2019-01-15T03:43:15.151Z,99458.00
2019-01-15T03:45:44.807Z,99448.09
2019-01-15T03:48:15.756Z,99446.75
2019-01-15T03:50:45.311Z,99451.30
2019-01-15T03:53:18.328Z,99457.42
2019-01-15T03:55:47.532Z,99455.52
2019-01-15T03:58:17.397Z,99459.80
2019-01-15T04:00:55.458Z,99465.14
2019-01-15T04:03:25.684Z,99466.86
2019-01-15T04:05:54.957Z,99471.62
2019-01-15T04:08:24.995Z,99477.66
2019-01-15T04:10:58.505Z,99475.17
2019-01-15T04:13:28.005Z,99474.35
2019-01-15T04:15:57.868Z,99469.30
2019-01-15T04:18:30.015Z,99471.39
2019-01-15T04:21:06.981Z,99460.22
2019-01-15T04:23:37.321Z,99465.03
2019-01-15T04:26:07.403Z,99461.16
2019-01-15T04:28:38.289Z,99463.23
2019-01-15T04:31:09.605Z,99455.72
2019-01-15T04:33:38.865Z,99455.80
2019-01-15T04:36:08.448Z,99466.12
2019-01-15T04:38:38.540Z,99465.76
2019-01-15T04:41:14.133Z,99464.48
2019-01-15T04:43:53.386Z,99460.58
2019-01-15T04:46:23.825Z,99464.08
2019-01-15T04:48:53.332Z,99470.53
2019-01-15T04:51:25.374Z,99461.16
2019-01-15T04:53:54.636Z,99454.41
2019-01-15T04:56:25.359Z,99453.28
2019-01-15T04:58:54.689Z,99449.55
2019-01-15T05:01:45.190Z,99456.84
2019-01-15T05:04:15.592Z,99456.20
2019-01-15T05:06:46.884Z,99452.70
2019-01-15T05:09:17.990Z,99449.45
2019-01-15T05:11:47.778Z,99446.57
2019-01-15T05:14:17.847Z,99456.16
2019-01-15T05:16:47.086Z,99457.69
2019-01-15T05:19:18.447Z,99460.59
2019-01-15T05:21:48.171Z,99455.81
2019-01-15T05:24:17.989Z,99455.76
2019-01-15T05:26:48.630Z,99470.05
2019-01-15T05:29:17.889Z,99470.18
2019-01-15T05:31:47.787Z,99469.89
2019-01-15T05:34:18.330Z,99465.76
2019-01-15T05:36:48.457Z,99463.82
2019-01-15T05:39:19.253Z,99453.42
2019-01-15T05:41:48.823Z,99453.38
2019-01-15T05:44:18.598Z,99455.04
2019-01-15T05:46:50.493Z,99452.84
2019-01-15T05:49:21.275Z,99447.12
2019-01-15T05:51:50.829Z,99445.41
2019-01-15T05:54:20.897Z,99436.84
2019-01-15T05:56:50.141Z,99437.07
2019-01-15T05:59:19.962Z,99436.41
2019-01-15T06:01:51.268Z,99437.30
2019-01-15T06:04:20.792Z,99432.02
2019-01-15T06:06:50.813Z,99424.91
2019-01-15T06:09:21.231Z,99423.73
2019-01-15T06:11:51.610Z,99424.91
2019-01-15T06:14:21.409Z,99427.88
2019-01-15T06:16:50.909Z,99425.72
2019-01-15T06:19:20.524Z,99428.38
2019-01-15T06:21:50.771Z,99420.44
2019-01-15T06:24:20.744Z,99416.03
2019-01-15T06:26:50.862Z,99422.65
2019-01-15T06:29:21.790Z,99415.58
2019-01-15T06:31:52.158Z,99416.56
2019-01-15T06:34:21.828Z,99423.86
2019-01-15T06:36:52.339Z,99431.40
2019-01-15T06:39:45.558Z,99431.56
2019-01-15T06:42:25.547Z,99442.02
2019-01-15T06:44:56.781Z,99441.62
2019-01-15T06:47:27.155Z,99444.48
2019-01-15T06:49:56.855Z,99444.13
2019-01-15T06:52:26.389Z,99444.63
2019-01-15T06:54:55.949Z,99440.25
2019-01-15T06:57:25.795Z,99450.47
2019-01-15T06:59:58.158Z,99438.73
2019-01-15T07:02:31.187Z,99435.66
2019-01-15T07:05:00.413Z,99439.22
2019-01-15T07:07:31.262Z,99445.84
2019-01-15T07:10:01.897Z,99447.55
2019-01-15T07:12:31.534Z,99444.13
2019-01-15T07:15:01.417Z,99439.80
2019-01-15T07:17:31.074Z,99448.73
2019-01-15T07:20:01.667Z,99449.88
2019-01-15T07:22:30.942Z,99442.28
2019-01-15T07:25:00.516Z,99422.53
2019-01-15T07:27:30.123Z,99430.03
2019-01-15T07:29:59.727Z,99430.64
2019-01-15T07:32:34.769Z,99442.39
2019-01-15T07:35:05.931Z,99441.30
2019-01-15T07:37:36.549Z,99442.00
2019-01-15T07:40:07.905Z,99450.34
2019-01-15T07:42:49.835Z,99452.55
2019-01-15T07:45:22.623Z,99455.02
2019-01-15T07:47:52.867Z,99451.95
2019-01-15T07:50:27.982Z,99439.48
2019-01-15T07:52:59.404Z,99451.33
2019-01-15T07:55:32.613Z,99441.23
2019-01-15T07:58:04.595Z,99449.08
2019-01-15T08:00:35.765Z,99456.02
2019-01-15T08:03:06.078Z,99452.95
2019-01-15T08:05:35.285Z,99461.11
2019-01-15T08:08:06.981Z,99461.31
2019-01-15T08:10:36.567Z,99448.04
2019-01-15T08:13:08.005Z,99434.86
2019-01-15T08:15:38.247Z,99437.56
2019-01-15T08:18:08.678Z,99448.48
2019-01-15T08:20:40.755Z,99443.56
2019-01-15T08:23:22.957Z,99437.16
2019-01-15T08:25:52.219Z,99451.31
2019-01-15T08:28:23.296Z,99463.21
2019-01-15T08:30:52.854Z,99458.98
2019-01-15T08:33:23.761Z,99468.84
2019-01-15T08:35:53.033Z,99459.29
2019-01-15T08:38:29.341Z,99467.25
2019-01-15T08:40:59.659Z,99465.70
2019-01-15T08:43:30.643Z,99466.91
2019-01-15T08:46:00.654Z,99466.11
2019-01-15T08:48:32.859Z,99448.95
2019-01-15T08:51:02.896Z,99443.02
2019-01-15T08:53:38.094Z,99455.34
2019-01-15T08:56:07.710Z,99453.54
2019-01-15T08:58:36.972Z,99464.59
2019-01-15T09:01:08.503Z,99451.20
2019-01-15T09:03:44.413Z,99442.23
2019-01-15T09:06:15.213Z,99428.11
2019-01-15T09:08:46.120Z,99428.51
2019-01-15T09:11:15.978Z,99435.00
2019-01-15T09:13:45.302Z,99438.13
2019-01-15T09:16:18.988Z,99440.42
2019-01-15T09:18:48.287Z,99445.75
2019-01-15T09:21:17.880Z,99457.23
2019-01-15T09:23:47.751Z,99450.20
2019-01-15T09:26:17.494Z,99450.88
2019-01-15T09:28:46.801Z,99443.48
2019-01-15T09:31:28.699Z,99445.03
2019-01-15T09:33:58.586Z,99450.45
2019-01-15T09:36:28.089Z,99440.88
2019-01-15T09:39:02.243Z,99446.05
2019-01-15T09:41:33.971Z,99453.90
2019-01-15T09:44:05.992Z,99442.47
2019-01-15T09:46:41.535Z,99445.25
2019-01-15T09:49:18.968Z,99446.91
2019-01-15T09:51:49.256Z,99434.85
2019-01-15T09:54:22.579Z,99445.48
2019-01-15T09:56:51.982Z,99436.27
2019-01-15T09:59:21.618Z,99440.70
2019-01-15T10:01:54.335Z,99437.58
2019-01-15T10:04:24.041Z,99428.73
2019-01-15T10:06:53.721Z,99431.01
2019-01-15T10:09:24.366Z,99424.98
2019-01-15T10:12:03.110Z,99418.33
2019-01-15T10:14:42.424Z,99412.59
2019-01-15T10:17:12.673Z,99418.28
2019-01-15T10:19:45.247Z,99419.75
2019-01-15T10:22:14.959Z,99420.59
2019-01-15T10:24:46.951Z,99421.17
2019-01-15T10:27:29.281Z,99415.31
2019-01-15T10:30:03.341Z,99413.09
2019-01-15T10:33:05.286Z,99412.30
2019-01-15T10:36:02.641Z,99412.75
2019-01-15T10:39:20.122Z,99407.16
2019-01-15T10:41:51.214Z,99399.97
2019-01-15T10:44:21.579Z,99395.63
2019-01-15T10:47:26.326Z,99387.91
2019-01-15T10:49:59.537Z,99385.27
2019-01-15T10:52:29.190Z,99388.44
2019-01-15T10:54:58.941Z,99377.58
2019-01-15T10:57:29.043Z,99381.20
2019-01-15T10:59:59.752Z,99372.73
2019-01-15T11:02:29.016Z,99382.80
2019-01-15T11:04:58.287Z,99379.64
2019-01-15T11:07:27.826Z,99362.09
2019-01-15T11:09:57.094Z,99370.27
2019-01-15T11:12:27.639Z,99364.84
2019-01-15T11:14:57.447Z,99366.79
2019-01-15T11:17:29.653Z,99363.99
2019-01-15T11:20:00.965Z,99361.83
2019-01-15T11:22:31.306Z,99356.78
2019-01-15T11:25:01.168Z,99355.23
2019-01-15T11:27:31.288Z,99351.66
2019-01-15T11:30:00.979Z,99345.45
2019-01-15T11:32:30.247Z,99342.95
2019-01-15T11:34:59.504Z,99340.33
2019-01-15T11:37:42.857Z,99331.61
2019-01-15T11:40:13.129Z,99339.14
2019-01-15T11:42:43.124Z,99326.95
2019-01-15T11:45:13.114Z,99323.41
2019-01-15T11:47:46.340Z,99327.55
2019-01-15T11:50:17.853Z,99319.59
2019-01-15T11:52:48.843Z,99315.41
2019-01-15T11:55:18.069Z,99315.75
2019-01-15T11:57:48.550Z,99311.33
2019-01-15T12:00:35.059Z,99306.11
2019-01-15T12:03:20.366Z,99306.02
2019-01-15T12:06:08.850Z,99310.89
2019-01-15T12:09:12.656Z,99312.57
2019-01-15T12:12:15.614Z,99307.99
2019-01-15T12:15:11.099Z,99306.33
2019-01-15T12:18:00.030Z,99308.56
2019-01-15T12:20:47.860Z,99318.44
2019-01-15T12:23:34.973Z,99307.09
2019-01-15T12:26:33.127Z,99306.86
2019-01-15T12:29:21.328Z,99309.59
2019-01-15T12:32:00.582Z,99307.98
2019-01-15T12:34:48.237Z,99295.72
2019-01-15T12:37:47.867Z,99297.48
2019-01-15T12:40:49.432Z,99289.95
2019-01-15T12:44:08.295Z,99287.36
2019-01-15T12:47:03.079Z,99285.52
2019-01-15T12:53:22.532Z,99262.92
2019-01-15T12:56:32.048Z,99264.39
2019-01-15T12:59:45.292Z,99258.52
2019-01-15T13:02:53.317Z,99256.77
2019-01-15T13:05:58.697Z,99247.58
2019-01-15T13:09:01.398Z,99244.23
2019-01-15T13:11:55.199Z,99244.42
2019-01-15T13:14:46.704Z,99230.96
2019-01-15T13:17:43.370Z,99239.70
2019-01-15T13:20:48.591Z,99231.80
2019-01-15T13:23:36.848Z,99233.41
2019-01-15T13:26:42.949Z,99236.54
2019-01-15T13:29:52.785Z,99234.73
2019-01-15T13:32:34.893Z,99228.55
2019-01-15T13:35:24.677Z,99225.08
2019-01-15T13:38:14.582Z,99219.44
2019-01-15T13:41:20.915Z,99221.00
2019-01-15T13:44:11.115Z,99223.95
2019-01-15T13:47:17.067Z,99218.23
2019-01-15T13:50:05.808Z,99223.16
2019-01-15T13:52:56.990Z,99225.22
2019-01-15T13:55:51.307Z,99222.38
2019-01-15T13:58:36.952Z,99207.08
2019-01-15T14:01:44.019Z,99212.41
2019-01-15T14:04:37.972Z,99209.31
2019-01-15T14:07:35.968Z,99207.61
2019-01-15T14:10:37.639Z,99213.44
2019-01-15T14:13:33.895Z,99203.45
2019-01-15T14:16:20.423Z,99199.65
2019-01-15T14:19:19.256Z,99208.46
2019-01-15T14:22:24.983Z,99207.53
2019-01-15T14:25:12.294Z,99217.20
2019-01-15T14:27:58.977Z,99211.80
2019-01-15T14:30:56.255Z,99207.39
2019-01-15T14:33:44.422Z,99217.37
2019-01-15T14:36:31.357Z,99210.23
2019-01-15T14:39:18.244Z,99209.63
2019-01-15T14:42:09.154Z,99208.78
2019-01-15T14:44:59.360Z,99200.72
2019-01-15T14:47:47.274Z,99200.72
2019-01-15T14:50:34.644Z,99203.27
2019-01-15T14:53:23.937Z,99200.64
2019-01-15T14:56:11.360Z,99191.17
2019-01-15T14:59:00.302Z,99195.50
2019-01-15T15:01:52.235Z,99194.27
2019-01-15T15:04:42.890Z,99198.41
2019-01-15T15:07:41.699Z,99190.25
2019-01-15T15:10:46.748Z,99187.51
2019-01-15T15:13:44.573Z,99188.62
2019-01-15T15:16:45.174Z,99190.53
2019-01-15T15:19:46.038Z,99197.42
2019-01-15T15:22:55.420Z,99190.46
2019-01-15T15:25:36.247Z,99197.28
2019-01-15T15:28:39.214Z,99196.96
2019-01-15T15:31:26.213Z,99202.61
2019-01-15T15:34:21.223Z,99206.94
2019-01-15T15:37:09.961Z,99211.09
2019-01-15T15:40:17.113Z,99210.88
2019-01-15T15:43:08.996Z,99207.02
2019-01-15T15:45:56.960Z,99217.77
2019-01-15T15:48:57.937Z,99213.58
2019-01-15T15:51:43.121Z,99209.25
2019-01-15T15:54:31.074Z,99209.17
2019-01-15T15:57:28.188Z,99214.75
2019-01-15T16:00:14.968Z,99208.39
2019-01-15T16:03:15.501Z,99212.48
2019-01-15T16:06:09.391Z,99210.42
2019-01-15T16:08:51.241Z,99209.11
2019-01-15T16:11:45.305Z,99201.62
2019-01-15T16:14:33.280Z,99211.09
2019-01-15T16:17:20.179Z,99202.01
2019-01-15T16:20:10.471Z,99202.15
2019-01-15T16:23:12.170Z,99204.98
2019-01-15T16:26:05.432Z,99202.15
2019-01-15T16:28:54.096Z,99205.70
2019-01-15T16:31:43.611Z,99199.66
2019-01-15T16:34:42.273Z,99207.47
2019-01-15T16:37:31.638Z,99201.37
2019-01-15T16:40:26.568Z,99201.55
2019-01-15T16:43:17.771Z,99195.41
2019-01-15T16:46:18.267Z,99202.75
2019-01-15T16:49:25.105Z,99206.63
2019-01-15T16:52:25.080Z,99204.63
2019-01-15T16:55:12.015Z,99195.91
2019-01-15T16:57:57.523Z,99203.00
2019-01-15T17:00:50.924Z,99200.05
2019-01-15T17:03:32.752Z,99201.55
2019-01-15T17:06:39.881Z,99195.44
2019-01-15T17:09:27.826Z,99197.81
2019-01-15T17:12:20.302Z,99193.41
2019-01-15T17:15:17.939Z,99191.42
2019-01-15T17:18:23.697Z,99202.39
2019-01-15T17:21:14.491Z,99201.44
2019-01-15T17:24:34.400Z,99197.67
2019-01-15T17:27:27.180Z,99200.83
2019-01-15T17:30:29.120Z,99199.44
2019-01-15T17:33:21.894Z,99205.61
2019-01-15T17:36:19.722Z,99213.49
2019-01-15T17:39:15.495Z,99207.71
2019-01-15T17:42:08.096Z,99217.58
2019-01-15T17:45:17.387Z,99211.26
2019-01-15T17:48:20.930Z,99211.26
2019-01-15T17:51:14.100Z,99213.09
2019-01-15T17:54:00.858Z,99217.52
2019-01-15T17:57:08.322Z,99211.39
2019-01-15T18:00:05.201Z,99215.59
2019-01-15T18:02:52.286Z,99210.80
2019-01-15T18:05:39.937Z,99205.22
2019-01-15T18:08:57.519Z,99209.69
2019-01-15T18:11:59.295Z,99217.67
2019-01-15T18:14:48.274Z,99212.70
2019-01-15T18:17:43.986Z,99215.52
2019-01-15T18:20:32.580Z,99206.30
2019-01-15T18:23:19.697Z,99213.49
2019-01-15T18:26:13.310Z,99214.80
2019-01-15T18:29:02.680Z,99215.47
2019-01-15T18:32:05.968Z,99214.27
2019-01-15T18:35:03.126Z,99223.84
2019-01-15T18:37:54.849Z,99223.91
2019-01-15T18:40:53.309Z,99242.88
2019-01-15T18:43:50.508Z,99225.62
2019-01-15T18:46:44.730Z,99234.48
2019-01-15T18:49:36.238Z,99229.09
2019-01-15T18:52:23.213Z,99232.09
2019-01-15T18:55:10.100Z,99233.41
2019-01-15T18:58:13.837Z,99228.22
2019-01-15T19:01:01.692Z,99225.89
2019-01-15T19:04:15.171Z,99231.92
2019-01-15T19:07:08.309Z,99227.97
2019-01-15T19:10:10.961Z,99234.33
2019-01-15T19:13:16.105Z,99226.75
2019-01-15T19:16:19.638Z,99227.05
2019-01-15T19:19:24.282Z,99228.53
2019-01-15T19:22:15.947Z,99228.92
2019-01-15T19:25:10.573Z,99229.13
2019-01-15T19:28:05.194Z,99228.73
2019-01-15T19:30:56.990Z,99220.85
2019-01-15T19:33:57.458Z,99220.00
2019-01-15T19:36:52.478Z,99217.16
2019-01-15T19:39:37.348Z,99211.83
2019-01-15T19:42:32.213Z,99224.11
2019-01-15T19:45:22.665Z,99217.55
2019-01-15T19:48:13.172Z,99223.52
2019-01-15T19:50:58.192Z,99218.66
2019-01-15T19:53:53.155Z,99223.58
2019-01-15T19:56:56.589Z,99215.64
2019-01-15T19:59:50.673Z,99221.68
2019-01-15T20:02:39.191Z,99220.76
2019-01-15T20:05:39.676Z,99229.02
2019-01-15T20:08:26.528Z,99225.02
2019-01-15T20:11:11.069Z,99223.38
2019-01-15T20:14:00.682Z,99222.07
2019-01-15T20:16:50.340Z,99219.84
2019-01-15T20:19:52.348Z,99222.63
2019-01-15T20:22:53.996Z,99223.61
2019-01-15T20:25:32.052Z,99226.42
2019-01-15T20:28:34.345Z,99231.81
2019-01-15T20:31:26.931Z,99223.55
2019-01-15T20:34:11.375Z,99228.59
2019-01-15T20:37:13.255Z,99225.64
2019-01-15T20:40:01.673Z,99232.86
2019-01-15T20:42:48.773Z,99230.69
2019-01-15T20:45:51.071Z,99226.70
2019-01-15T20:48:50.494Z,99223.94
2019-01-15T20:51:43.510Z,99213.15
2019-01-15T20:54:31.989Z,99218.00
2019-01-15T20:57:39.142Z,99219.25
2019-01-15T21:00:33.675Z,99223.78
2019-01-15T21:03:23.509Z,99225.31
2019-01-15T21:06:13.826Z,99223.19
2019-01-15T21:09:00.318Z,99228.20
2019-01-15T21:11:48.670Z,99230.66
2019-01-15T21:14:49.958Z,99223.64
2019-01-15T21:17:44.148Z,99234.11
2019-01-15T21:20:33.308Z,99225.05
2019-01-15T21:23:30.337Z,99229.05
2019-01-15T21:26:18.239Z,99223.80
2019-01-15T21:29:16.251Z,99218.63
2019-01-15T21:32:05.048Z,99220.56
2019-01-15T21:34:50.246Z,99219.61
2019-01-15T21:37:39.232Z,99217.77
2019-01-15T21:40:34.292Z,99218.75
2019-01-15T21:43:27.024Z,99220.33
2019-01-15T21:46:18.927Z,99215.67
2019-01-15T21:49:12.987Z,99215.37
2019-01-15T21:52:14.201Z,99221.01
2019-01-15T21:55:08.094Z,99209.56
2019-01-15T21:58:02.501Z,99214.92
2019-01-15T22:01:08.860Z,99210.42
2019-01-15T22:04:00.097Z,99215.14
2019-01-15T22:06:52.868Z,99209.13
2019-01-15T22:09:54.086Z,99211.01
2019-01-15T22:12:46.433Z,99214.13
2019-01-15T22:15:37.756Z,99213.97
2019-01-15T22:18:39.564Z,99217.51
2019-01-15T22:21:32.494Z,99209.17
2019-01-15T22:24:35.996Z,99213.83
2019-01-15T22:27:31.420Z,99204.32
2019-01-15T22:30:24.362Z,99210.98
2019-01-15T22:33:17.779Z,99203.98
2019-01-15T22:36:05.988Z,99203.73
2019-01-15T22:38:52.855Z,99196.24
2019-01-15T22:41:39.559Z,99196.92
2019-01-15T22:44:23.503Z,99193.36
2019-01-15T22:47:09.836Z,99187.66
2019-01-15T22:49:57.284Z,99183.65
2019-01-15T22:52:48.523Z,99180.50
2019-01-15T22:55:35.470Z,99183.19
2019-01-15T22:58:19.093Z,99178.54
2019-01-15T23:01:24.272Z,99175.78
2019-01-15T23:04:13.794Z,99177.85
2019-01-15T23:07:05.383Z,99173.59
2019-01-15T23:09:57.624Z,99170.48
2019-01-15T23:12:52.170Z,99166.23
2019-01-15T23:15:40.681Z,99172.72
2019-01-15T23:18:32.353Z,99174.55
2019-01-15T23:21:20.644Z,99176.72
2019-01-15T23:24:09.397Z,99176.75
2019-01-15T23:26:52.727Z,99172.97
2019-01-15T23:29:40.660Z,99166.41
2019-01-15T23:32:29.898Z,99169.89
2019-01-15T23:35:26.745Z,99174.05
2019-01-15T23:38:15.116Z,99171.36
2019-01-15T23:41:03.931Z,99162.57
2019-01-15T23:43:55.963Z,99161.78
2019-01-15T23:46:47.044Z,99166.50
2019-01-15T23:49:34.499Z,99160.94
2019-01-15T23:52:25.317Z,99161.46
2019-01-15T23:55:13.865Z,99153.06
2019-01-15T23:58:02.373Z,99158.77
